sensor_id;sensor_type;location;lat;lon;timestamp;P1;durP1;ratioP1;P2;durP2;ratioP2
30408;SDS011;17207;52.960;5.916;2024-02-21T00:00:02;3.15;;;1.60;;
30408;SDS011;17207;52.960;5.916;2024-02-21T00:02:29;1.53;;;0.90;;
30408;SDS011;17207;52.960;5.916;2024-02-21T00:04:55;2.92;;;1.20;;
30408;SDS011;17207;52.960;5.916;2024-02-21T00:07:21;2.45;;;1.20;;
30408;SDS011;17207;52.960;5.916;2024-02-21T00:09:47;5.03;;;1.60;;
30408;SDS011;17207;52.960;5.916;2024-02-21T00:12:14;3.45;;;1.20;;
30408;SDS011;17207;52.960;5.916;2024-02-21T00:14:40;3.00;;;1.38;;
30408;SDS011;17207;52.960;5.916;2024-02-21T00:17:06;5.15;;;1.45;;
30408;SDS011;17207;52.960;5.916;2024-02-21T00:19:33;3.38;;;1.27;;
30408;SDS011;17207;52.960;5.916;2024-02-21T00:22:00;3.20;;;1.42;;
30408;SDS011;17207;52.960;5.916;2024-02-21T00:24:26;1.90;;;1.23;;
30408;SDS011;17207;52.960;5.916;2024-02-21T00:26:53;2.45;;;1.55;;
30408;SDS011;17207;52.960;5.916;2024-02-21T00:29:19;3.20;;;1.50;;
30408;SDS011;17207;52.960;5.916;2024-02-21T00:31:45;2.67;;;1.17;;
30408;SDS011;17207;52.960;5.916;2024-02-21T00:34:11;3.47;;;1.40;;
30408;SDS011;17207;52.960;5.916;2024-02-21T00:36:38;2.88;;;1.40;;
30408;SDS011;17207;52.960;5.916;2024-02-21T00:39:04;2.80;;;1.30;;
30408;SDS011;17207;52.960;5.916;2024-02-21T00:41:30;2.13;;;1.30;;
30408;SDS011;17207;52.960;5.916;2024-02-21T00:43:56;2.42;;;1.30;;
30408;SDS011;17207;52.960;5.916;2024-02-21T00:46:22;2.55;;;1.40;;
30408;SDS011;17207;52.960;5.916;2024-02-21T00:48:48;1.80;;;0.93;;
30408;SDS011;17207;52.960;5.916;2024-02-21T00:51:15;3.67;;;1.63;;
30408;SDS011;17207;52.960;5.916;2024-02-21T00:53:42;4.63;;;1.65;;
30408;SDS011;17207;52.960;5.916;2024-02-21T00:56:08;2.88;;;1.30;;
30408;SDS011;17207;52.960;5.916;2024-02-21T00:58:34;2.85;;;1.50;;
30408;SDS011;17207;52.960;5.916;2024-02-21T01:01:00;2.72;;;1.20;;
30408;SDS011;17207;52.960;5.916;2024-02-21T01:03:26;3.72;;;1.38;;
30408;SDS011;17207;52.960;5.916;2024-02-21T01:05:52;3.42;;;1.30;;
30408;SDS011;17207;52.960;5.916;2024-02-21T01:08:18;3.50;;;1.40;;
30408;SDS011;17207;52.960;5.916;2024-02-21T01:10:44;3.08;;;1.20;;
30408;SDS011;17207;52.960;5.916;2024-02-21T01:13:10;4.88;;;1.45;;
30408;SDS011;17207;52.960;5.916;2024-02-21T01:15:36;3.67;;;1.23;;
30408;SDS011;17207;52.960;5.916;2024-02-21T01:18:02;3.10;;;1.48;;
30408;SDS011;17207;52.960;5.916;2024-02-21T01:20:30;4.18;;;1.50;;
30408;SDS011;17207;52.960;5.916;2024-02-21T01:22:56;4.68;;;1.45;;
30408;SDS011;17207;52.960;5.916;2024-02-21T01:25:22;4.40;;;1.40;;
30408;SDS011;17207;52.960;5.916;2024-02-21T01:27:48;3.90;;;1.50;;
30408;SDS011;17207;52.960;5.916;2024-02-21T01:30:14;3.65;;;1.42;;
30408;SDS011;17207;52.960;5.916;2024-02-21T01:32:40;4.60;;;1.60;;
30408;SDS011;17207;52.960;5.916;2024-02-21T01:35:07;1.98;;;1.27;;
30408;SDS011;17207;52.960;5.916;2024-02-21T01:37:33;2.55;;;1.42;;
30408;SDS011;17207;52.960;5.916;2024-02-21T01:39:59;3.78;;;1.52;;
30408;SDS011;17207;52.960;5.916;2024-02-21T01:42:25;3.38;;;1.17;;
30408;SDS011;17207;52.960;5.916;2024-02-21T01:44:51;3.70;;;1.58;;
30408;SDS011;17207;52.960;5.916;2024-02-21T01:47:18;4.68;;;1.52;;
30408;SDS011;17207;52.960;5.916;2024-02-21T01:49:45;2.70;;;1.40;;
30408;SDS011;17207;52.960;5.916;2024-02-21T01:52:11;3.72;;;1.13;;
30408;SDS011;17207;52.960;5.916;2024-02-21T01:54:39;4.38;;;1.65;;
30408;SDS011;17207;52.960;5.916;2024-02-21T01:57:05;2.95;;;1.20;;
30408;SDS011;17207;52.960;5.916;2024-02-21T01:59:31;3.83;;;1.45;;
30408;SDS011;17207;52.960;5.916;2024-02-21T02:01:57;3.55;;;1.67;;
30408;SDS011;17207;52.960;5.916;2024-02-21T02:04:24;2.83;;;1.25;;
30408;SDS011;17207;52.960;5.916;2024-02-21T02:06:50;2.38;;;1.40;;
30408;SDS011;17207;52.960;5.916;2024-02-21T02:09:17;3.17;;;1.48;;
30408;SDS011;17207;52.960;5.916;2024-02-21T02:11:43;2.22;;;1.27;;
30408;SDS011;17207;52.960;5.916;2024-02-21T02:14:09;3.53;;;1.20;;
30408;SDS011;17207;52.960;5.916;2024-02-21T02:16:35;3.00;;;1.40;;
30408;SDS011;17207;52.960;5.916;2024-02-21T02:19:01;4.47;;;1.60;;
30408;SDS011;17207;52.960;5.916;2024-02-21T02:21:32;2.33;;;1.33;;
30408;SDS011;17207;52.960;5.916;2024-02-21T02:23:58;2.10;;;1.20;;
30408;SDS011;17207;52.960;5.916;2024-02-21T02:26:24;4.13;;;1.40;;
30408;SDS011;17207;52.960;5.916;2024-02-21T02:28:50;2.75;;;1.35;;
30408;SDS011;17207;52.960;5.916;2024-02-21T02:31:16;4.40;;;1.30;;
30408;SDS011;17207;52.960;5.916;2024-02-21T02:33:43;3.05;;;1.38;;
30408;SDS011;17207;52.960;5.916;2024-02-21T02:36:13;4.38;;;1.40;;
30408;SDS011;17207;52.960;5.916;2024-02-21T02:38:39;6.45;;;1.75;;
30408;SDS011;17207;52.960;5.916;2024-02-21T02:41:05;3.72;;;1.70;;
30408;SDS011;17207;52.960;5.916;2024-02-21T02:43:31;4.13;;;1.65;;
30408;SDS011;17207;52.960;5.916;2024-02-21T02:45:57;2.25;;;1.27;;
30408;SDS011;17207;52.960;5.916;2024-02-21T02:48:23;3.75;;;1.40;;
30408;SDS011;17207;52.960;5.916;2024-02-21T02:50:49;4.50;;;1.42;;
30408;SDS011;17207;52.960;5.916;2024-02-21T02:53:15;2.67;;;1.35;;
30408;SDS011;17207;52.960;5.916;2024-02-21T02:55:41;5.30;;;1.88;;
30408;SDS011;17207;52.960;5.916;2024-02-21T02:58:07;3.50;;;1.38;;
30408;SDS011;17207;52.960;5.916;2024-02-21T03:00:33;4.63;;;1.65;;
30408;SDS011;17207;52.960;5.916;2024-02-21T03:03:01;3.40;;;1.70;;
30408;SDS011;17207;52.960;5.916;2024-02-21T03:05:29;4.97;;;1.95;;
30408;SDS011;17207;52.960;5.916;2024-02-21T03:07:55;2.60;;;1.50;;
30408;SDS011;17207;52.960;5.916;2024-02-21T03:10:21;4.28;;;1.83;;
30408;SDS011;17207;52.960;5.916;2024-02-21T03:12:47;3.00;;;1.50;;
30408;SDS011;17207;52.960;5.916;2024-02-21T03:15:13;6.75;;;1.65;;
30408;SDS011;17207;52.960;5.916;2024-02-21T03:17:39;3.72;;;1.60;;
30408;SDS011;17207;52.960;5.916;2024-02-21T03:20:06;3.15;;;1.30;;
30408;SDS011;17207;52.960;5.916;2024-02-21T03:22:35;4.50;;;1.60;;
30408;SDS011;17207;52.960;5.916;2024-02-21T03:25:01;4.25;;;1.50;;
30408;SDS011;17207;52.960;5.916;2024-02-21T03:27:27;4.97;;;1.58;;
30408;SDS011;17207;52.960;5.916;2024-02-21T03:29:53;5.45;;;1.80;;
30408;SDS011;17207;52.960;5.916;2024-02-21T03:32:19;3.47;;;1.40;;
30408;SDS011;17207;52.960;5.916;2024-02-21T03:34:46;3.70;;;1.52;;
30408;SDS011;17207;52.960;5.916;2024-02-21T03:37:12;3.55;;;1.88;;
30408;SDS011;17207;52.960;5.916;2024-02-21T03:39:38;7.57;;;1.92;;
30408;SDS011;17207;52.960;5.916;2024-02-21T03:42:04;3.17;;;1.17;;
30408;SDS011;17207;52.960;5.916;2024-02-21T03:44:31;2.63;;;1.45;;
30408;SDS011;17207;52.960;5.916;2024-02-21T03:46:58;2.67;;;1.42;;
30408;SDS011;17207;52.960;5.916;2024-02-21T03:49:25;3.00;;;1.42;;
30408;SDS011;17207;52.960;5.916;2024-02-21T03:51:51;2.67;;;1.17;;
30408;SDS011;17207;52.960;5.916;2024-02-21T03:54:17;3.80;;;1.50;;
30408;SDS011;17207;52.960;5.916;2024-02-21T03:56:43;3.03;;;1.58;;
30408;SDS011;17207;52.960;5.916;2024-02-21T03:59:09;5.00;;;1.70;;
30408;SDS011;17207;52.960;5.916;2024-02-21T04:01:35;4.20;;;1.40;;
30408;SDS011;17207;52.960;5.916;2024-02-21T04:04:01;3.33;;;1.50;;
30408;SDS011;17207;52.960;5.916;2024-02-21T04:06:27;4.55;;;1.48;;
30408;SDS011;17207;52.960;5.916;2024-02-21T04:08:54;3.72;;;1.50;;
30408;SDS011;17207;52.960;5.916;2024-02-21T04:11:20;2.60;;;1.25;;
30408;SDS011;17207;52.960;5.916;2024-02-21T04:13:46;1.92;;;1.00;;
30408;SDS011;17207;52.960;5.916;2024-02-21T04:16:15;1.95;;;1.02;;
30408;SDS011;17207;52.960;5.916;2024-02-21T04:18:41;2.17;;;1.10;;
30408;SDS011;17207;52.960;5.916;2024-02-21T04:21:13;2.70;;;1.60;;
30408;SDS011;17207;52.960;5.916;2024-02-21T04:23:40;1.58;;;1.00;;
30408;SDS011;17207;52.960;5.916;2024-02-21T04:26:06;3.83;;;1.23;;
30408;SDS011;17207;52.960;5.916;2024-02-21T04:28:32;1.58;;;0.93;;
30408;SDS011;17207;52.960;5.916;2024-02-21T04:30:58;1.95;;;1.13;;
30408;SDS011;17207;52.960;5.916;2024-02-21T04:33:24;4.13;;;1.60;;
30408;SDS011;17207;52.960;5.916;2024-02-21T04:35:53;2.38;;;0.93;;
30408;SDS011;17207;52.960;5.916;2024-02-21T04:38:20;1.73;;;0.98;;
30408;SDS011;17207;52.960;5.916;2024-02-21T04:40:46;2.00;;;1.05;;
30408;SDS011;17207;52.960;5.916;2024-02-21T04:43:12;2.45;;;1.65;;
30408;SDS011;17207;52.960;5.916;2024-02-21T04:45:38;1.67;;;0.95;;
30408;SDS011;17207;52.960;5.916;2024-02-21T04:48:04;1.67;;;1.02;;
30408;SDS011;17207;52.960;5.916;2024-02-21T04:50:30;1.80;;;1.10;;
30408;SDS011;17207;52.960;5.916;2024-02-21T04:52:56;1.95;;;1.00;;
30408;SDS011;17207;52.960;5.916;2024-02-21T04:55:22;2.30;;;0.90;;
30408;SDS011;17207;52.960;5.916;2024-02-21T04:57:48;1.40;;;0.90;;
30408;SDS011;17207;52.960;5.916;2024-02-21T05:00:14;2.03;;;0.75;;
30408;SDS011;17207;52.960;5.916;2024-02-21T05:02:40;1.75;;;0.95;;
30408;SDS011;17207;52.960;5.916;2024-02-21T05:05:06;2.22;;;0.95;;
30408;SDS011;17207;52.960;5.916;2024-02-21T05:07:32;1.83;;;0.95;;
30408;SDS011;17207;52.960;5.916;2024-02-21T05:09:58;1.15;;;0.93;;
30408;SDS011;17207;52.960;5.916;2024-02-21T05:12:24;1.40;;;0.90;;
30408;SDS011;17207;52.960;5.916;2024-02-21T05:14:50;2.45;;;1.02;;
30408;SDS011;17207;52.960;5.916;2024-02-21T05:17:16;1.98;;;1.02;;
30408;SDS011;17207;52.960;5.916;2024-02-21T05:19:42;2.40;;;1.30;;
30408;SDS011;17207;52.960;5.916;2024-02-21T05:22:08;3.00;;;1.17;;
30408;SDS011;17207;52.960;5.916;2024-02-21T05:24:34;1.48;;;0.82;;
30408;SDS011;17207;52.960;5.916;2024-02-21T05:27:01;1.80;;;0.90;;
30408;SDS011;17207;52.960;5.916;2024-02-21T05:29:27;2.53;;;1.35;;
30408;SDS011;17207;52.960;5.916;2024-02-21T05:34:19;2.75;;;1.10;;
30408;SDS011;17207;52.960;5.916;2024-02-21T05:36:45;1.10;;;0.90;;
30408;SDS011;17207;52.960;5.916;2024-02-21T05:39:11;0.95;;;0.70;;
30408;SDS011;17207;52.960;5.916;2024-02-21T05:41:37;2.38;;;1.10;;
30408;SDS011;17207;52.960;5.916;2024-02-21T05:44:03;0.90;;;0.80;;
30408;SDS011;17207;52.960;5.916;2024-02-21T05:46:29;2.05;;;1.10;;
30408;SDS011;17207;52.960;5.916;2024-02-21T05:48:55;1.85;;;0.93;;
30408;SDS011;17207;52.960;5.916;2024-02-21T05:51:21;1.65;;;0.95;;
30408;SDS011;17207;52.960;5.916;2024-02-21T05:53:47;1.63;;;0.85;;
30408;SDS011;17207;52.960;5.916;2024-02-21T05:56:13;2.03;;;1.05;;
30408;SDS011;17207;52.960;5.916;2024-02-21T05:58:40;1.98;;;1.00;;
30408;SDS011;17207;52.960;5.916;2024-02-21T06:01:06;1.70;;;1.00;;
30408;SDS011;17207;52.960;5.916;2024-02-21T06:03:32;1.83;;;1.10;;
30408;SDS011;17207;52.960;5.916;2024-02-21T06:05:59;1.60;;;1.00;;
30408;SDS011;17207;52.960;5.916;2024-02-21T06:08:25;0.63;;;0.60;;
30408;SDS011;17207;52.960;5.916;2024-02-21T06:10:51;2.03;;;1.00;;
30408;SDS011;17207;52.960;5.916;2024-02-21T06:13:19;1.48;;;1.00;;
30408;SDS011;17207;52.960;5.916;2024-02-21T06:15:46;1.80;;;1.13;;
30408;SDS011;17207;52.960;5.916;2024-02-21T06:18:12;1.25;;;0.90;;
30408;SDS011;17207;52.960;5.916;2024-02-21T06:20:38;1.33;;;0.88;;
30408;SDS011;17207;52.960;5.916;2024-02-21T06:23:05;0.93;;;0.73;;
30408;SDS011;17207;52.960;5.916;2024-02-21T06:25:31;1.00;;;0.85;;
30408;SDS011;17207;52.960;5.916;2024-02-21T06:27:57;1.95;;;1.10;;
30408;SDS011;17207;52.960;5.916;2024-02-21T06:30:23;1.35;;;0.80;;
30408;SDS011;17207;52.960;5.916;2024-02-21T06:32:49;1.90;;;1.00;;
30408;SDS011;17207;52.960;5.916;2024-02-21T06:35:15;1.67;;;0.93;;
30408;SDS011;17207;52.960;5.916;2024-02-21T06:37:42;1.27;;;0.75;;
30408;SDS011;17207;52.960;5.916;2024-02-21T06:40:10;1.75;;;1.05;;
30408;SDS011;17207;52.960;5.916;2024-02-21T06:42:36;0.82;;;0.63;;
30408;SDS011;17207;52.960;5.916;2024-02-21T06:45:02;0.75;;;0.60;;
30408;SDS011;17207;52.960;5.916;2024-02-21T06:47:31;0.85;;;0.65;;
30408;SDS011;17207;52.960;5.916;2024-02-21T06:49:58;0.85;;;0.70;;
30408;SDS011;17207;52.960;5.916;2024-02-21T06:52:23;1.10;;;0.93;;
30408;SDS011;17207;52.960;5.916;2024-02-21T06:54:50;0.80;;;0.70;;
30408;SDS011;17207;52.960;5.916;2024-02-21T06:57:16;0.85;;;0.60;;
30408;SDS011;17207;52.960;5.916;2024-02-21T06:59:42;1.45;;;0.90;;
30408;SDS011;17207;52.960;5.916;2024-02-21T07:02:08;1.05;;;0.77;;
30408;SDS011;17207;52.960;5.916;2024-02-21T07:04:34;1.23;;;0.80;;
30408;SDS011;17207;52.960;5.916;2024-02-21T07:07:00;1.25;;;0.68;;
30408;SDS011;17207;52.960;5.916;2024-02-21T07:09:27;1.42;;;0.95;;
30408;SDS011;17207;52.960;5.916;2024-02-21T07:11:53;0.50;;;0.50;;
30408;SDS011;17207;52.960;5.916;2024-02-21T07:14:20;0.75;;;0.68;;
30408;SDS011;17207;52.960;5.916;2024-02-21T07:16:46;0.68;;;0.68;;
30408;SDS011;17207;52.960;5.916;2024-02-21T07:19:12;0.73;;;0.70;;
30408;SDS011;17207;52.960;5.916;2024-02-21T07:21:38;2.35;;;0.95;;
30408;SDS011;17207;52.960;5.916;2024-02-21T07:24:06;1.55;;;0.70;;
30408;SDS011;17207;52.960;5.916;2024-02-21T07:26:32;1.05;;;0.70;;
30408;SDS011;17207;52.960;5.916;2024-02-21T07:28:58;1.98;;;0.80;;
30408;SDS011;17207;52.960;5.916;2024-02-21T07:31:24;1.15;;;0.68;;
30408;SDS011;17207;52.960;5.916;2024-02-21T07:33:50;1.00;;;0.60;;
30408;SDS011;17207;52.960;5.916;2024-02-21T07:36:25;1.70;;;1.02;;
30408;SDS011;17207;52.960;5.916;2024-02-21T07:38:51;0.93;;;0.55;;
30408;SDS011;17207;52.960;5.916;2024-02-21T07:41:17;0.50;;;0.50;;
30408;SDS011;17207;52.960;5.916;2024-02-21T07:43:43;1.08;;;0.73;;
30408;SDS011;17207;52.960;5.916;2024-02-21T07:46:09;1.33;;;0.85;;
30408;SDS011;17207;52.960;5.916;2024-02-21T07:48:35;0.88;;;0.60;;
30408;SDS011;17207;52.960;5.916;2024-02-21T07:51:01;1.45;;;0.60;;
30408;SDS011;17207;52.960;5.916;2024-02-21T07:53:27;1.02;;;0.60;;
30408;SDS011;17207;52.960;5.916;2024-02-21T07:55:53;1.08;;;0.68;;
30408;SDS011;17207;52.960;5.916;2024-02-21T07:58:19;0.85;;;0.60;;
30408;SDS011;17207;52.960;5.916;2024-02-21T08:00:45;1.45;;;0.70;;
30408;SDS011;17207;52.960;5.916;2024-02-21T08:03:11;2.63;;;0.90;;
30408;SDS011;17207;52.960;5.916;2024-02-21T08:05:38;1.17;;;0.70;;
30408;SDS011;17207;52.960;5.916;2024-02-21T08:08:04;2.65;;;1.00;;
30408;SDS011;17207;52.960;5.916;2024-02-21T08:10:30;0.95;;;0.68;;
30408;SDS011;17207;52.960;5.916;2024-02-21T08:12:56;1.40;;;0.80;;
30408;SDS011;17207;52.960;5.916;2024-02-21T08:15:22;2.85;;;1.00;;
30408;SDS011;17207;52.960;5.916;2024-02-21T08:17:53;1.77;;;1.20;;
30408;SDS011;17207;52.960;5.916;2024-02-21T08:20:23;2.97;;;1.00;;
30408;SDS011;17207;52.960;5.916;2024-02-21T08:22:50;1.65;;;0.90;;
30408;SDS011;17207;52.960;5.916;2024-02-21T08:25:15;3.63;;;1.25;;
30408;SDS011;17207;52.960;5.916;2024-02-21T08:27:41;3.70;;;1.42;;
30408;SDS011;17207;52.960;5.916;2024-02-21T08:30:08;2.53;;;1.00;;
30408;SDS011;17207;52.960;5.916;2024-02-21T08:32:34;2.90;;;1.17;;
30408;SDS011;17207;52.960;5.916;2024-02-21T08:35:01;3.35;;;1.20;;
30408;SDS011;17207;52.960;5.916;2024-02-21T08:37:28;2.70;;;1.20;;
30408;SDS011;17207;52.960;5.916;2024-02-21T08:39:54;3.08;;;1.50;;
30408;SDS011;17207;52.960;5.916;2024-02-21T08:42:20;2.13;;;1.35;;
30408;SDS011;17207;52.960;5.916;2024-02-21T08:44:46;3.38;;;1.17;;
30408;SDS011;17207;52.960;5.916;2024-02-21T08:47:12;3.10;;;1.33;;
30408;SDS011;17207;52.960;5.916;2024-02-21T08:49:38;2.33;;;1.48;;
30408;SDS011;17207;52.960;5.916;2024-02-21T08:52:04;1.92;;;1.30;;
30408;SDS011;17207;52.960;5.916;2024-02-21T08:54:30;4.28;;;1.58;;
30408;SDS011;17207;52.960;5.916;2024-02-21T08:56:57;3.90;;;1.50;;
30408;SDS011;17207;52.960;5.916;2024-02-21T08:59:23;4.38;;;1.63;;
30408;SDS011;17207;52.960;5.916;2024-02-21T09:01:51;2.10;;;1.27;;
30408;SDS011;17207;52.960;5.916;2024-02-21T09:04:18;2.78;;;1.70;;
30408;SDS011;17207;52.960;5.916;2024-02-21T09:06:44;2.75;;;1.50;;
30408;SDS011;17207;52.960;5.916;2024-02-21T09:09:11;3.00;;;1.70;;
30408;SDS011;17207;52.960;5.916;2024-02-21T09:11:37;2.63;;;1.42;;
30408;SDS011;17207;52.960;5.916;2024-02-21T09:14:05;2.45;;;1.50;;
30408;SDS011;17207;52.960;5.916;2024-02-21T09:16:33;2.58;;;1.50;;
30408;SDS011;17207;52.960;5.916;2024-02-21T09:18:59;1.77;;;1.50;;
30408;SDS011;17207;52.960;5.916;2024-02-21T09:21:25;2.63;;;1.85;;
30408;SDS011;17207;52.960;5.916;2024-02-21T09:23:53;3.27;;;1.70;;
30408;SDS011;17207;52.960;5.916;2024-02-21T09:26:19;3.03;;;1.70;;
30408;SDS011;17207;52.960;5.916;2024-02-21T09:28:45;2.25;;;1.52;;
30408;SDS011;17207;52.960;5.916;2024-02-21T09:31:11;2.13;;;1.55;;
30408;SDS011;17207;52.960;5.916;2024-02-21T09:33:37;2.92;;;1.88;;
30408;SDS011;17207;52.960;5.916;2024-02-21T09:36:03;2.95;;;1.90;;
30408;SDS011;17207;52.960;5.916;2024-02-21T09:38:30;4.57;;;1.97;;
30408;SDS011;17207;52.960;5.916;2024-02-21T09:41:03;2.58;;;1.92;;
30408;SDS011;17207;52.960;5.916;2024-02-21T09:43:30;2.72;;;1.75;;
30408;SDS011;17207;52.960;5.916;2024-02-21T09:45:56;2.70;;;1.85;;
30408;SDS011;17207;52.960;5.916;2024-02-21T09:50:53;2.28;;;1.70;;
30408;SDS011;17207;52.960;5.916;2024-02-21T09:53:20;4.13;;;2.03;;
30408;SDS011;17207;52.960;5.916;2024-02-21T09:55:49;3.20;;;1.77;;
30408;SDS011;17207;52.960;5.916;2024-02-21T09:58:16;2.13;;;1.70;;
30408;SDS011;17207;52.960;5.916;2024-02-21T10:00:42;3.15;;;2.13;;
30408;SDS011;17207;52.960;5.916;2024-02-21T10:03:08;2.75;;;2.03;;
30408;SDS011;17207;52.960;5.916;2024-02-21T10:05:34;4.68;;;2.10;;
30408;SDS011;17207;52.960;5.916;2024-02-21T10:08:00;3.63;;;2.20;;
30408;SDS011;17207;52.960;5.916;2024-02-21T10:10:26;3.08;;;1.98;;
30408;SDS011;17207;52.960;5.916;2024-02-21T10:12:54;3.40;;;1.80;;
30408;SDS011;17207;52.960;5.916;2024-02-21T10:15:21;3.85;;;2.20;;
30408;SDS011;17207;52.960;5.916;2024-02-21T10:17:57;3.80;;;2.35;;
30408;SDS011;17207;52.960;5.916;2024-02-21T10:20:23;3.63;;;1.98;;
30408;SDS011;17207;52.960;5.916;2024-02-21T10:22:59;4.13;;;2.20;;
30408;SDS011;17207;52.960;5.916;2024-02-21T10:25:26;2.47;;;1.92;;
30408;SDS011;17207;52.960;5.916;2024-02-21T10:27:52;3.83;;;1.88;;
30408;SDS011;17207;52.960;5.916;2024-02-21T10:30:19;4.65;;;2.20;;
30408;SDS011;17207;52.960;5.916;2024-02-21T10:32:49;4.03;;;2.33;;
30408;SDS011;17207;52.960;5.916;2024-02-21T10:35:24;4.13;;;2.33;;
30408;SDS011;17207;52.960;5.916;2024-02-21T10:37:50;3.33;;;2.10;;
30408;SDS011;17207;52.960;5.916;2024-02-21T10:40:20;3.88;;;2.00;;
30408;SDS011;17207;52.960;5.916;2024-02-21T10:42:46;2.30;;;1.52;;
30408;SDS011;17207;52.960;5.916;2024-02-21T10:45:13;3.55;;;2.35;;
30408;SDS011;17207;52.960;5.916;2024-02-21T10:47:40;4.03;;;1.80;;
30408;SDS011;17207;52.960;5.916;2024-02-21T10:50:07;3.58;;;2.25;;
30408;SDS011;17207;52.960;5.916;2024-02-21T10:55:24;3.17;;;1.92;;
30408;SDS011;17207;52.960;5.916;2024-02-21T10:57:52;2.05;;;1.85;;
30408;SDS011;17207;52.960;5.916;2024-02-21T11:00:18;5.15;;;2.60;;
30408;SDS011;17207;52.960;5.916;2024-02-21T11:02:45;3.22;;;1.95;;
30408;SDS011;17207;52.960;5.916;2024-02-21T11:05:12;3.47;;;2.80;;
30408;SDS011;17207;52.960;5.916;2024-02-21T11:07:38;2.70;;;2.08;;
30408;SDS011;17207;52.960;5.916;2024-02-21T11:10:05;3.35;;;2.20;;
30408;SDS011;17207;52.960;5.916;2024-02-21T11:12:32;2.65;;;2.15;;
30408;SDS011;17207;52.960;5.916;2024-02-21T11:15:07;4.28;;;2.50;;
30408;SDS011;17207;52.960;5.916;2024-02-21T11:17:33;3.17;;;2.00;;
30408;SDS011;17207;52.960;5.916;2024-02-21T11:20:10;3.70;;;2.42;;
30408;SDS011;17207;52.960;5.916;2024-02-21T11:22:40;2.53;;;2.20;;
30408;SDS011;17207;52.960;5.916;2024-02-21T11:25:09;3.60;;;2.28;;
30408;SDS011;17207;52.960;5.916;2024-02-21T11:27:38;4.07;;;2.60;;
30408;SDS011;17207;52.960;5.916;2024-02-21T11:30:04;3.10;;;2.22;;
30408;SDS011;17207;52.960;5.916;2024-02-21T11:32:31;3.40;;;2.15;;
30408;SDS011;17207;52.960;5.916;2024-02-21T11:34:57;4.45;;;2.03;;
30408;SDS011;17207;52.960;5.916;2024-02-21T11:37:28;3.47;;;2.20;;
30408;SDS011;17207;52.960;5.916;2024-02-21T11:39:55;3.75;;;2.22;;
30408;SDS011;17207;52.960;5.916;2024-02-21T11:42:21;3.20;;;2.50;;
30408;SDS011;17207;52.960;5.916;2024-02-21T11:44:47;3.67;;;2.47;;
30408;SDS011;17207;52.960;5.916;2024-02-21T11:47:14;3.55;;;2.30;;
30408;SDS011;17207;52.960;5.916;2024-02-21T11:49:45;3.08;;;2.20;;
30408;SDS011;17207;52.960;5.916;2024-02-21T11:52:12;3.30;;;2.42;;
30408;SDS011;17207;52.960;5.916;2024-02-21T11:54:40;3.50;;;2.13;;
30408;SDS011;17207;52.960;5.916;2024-02-21T11:57:06;3.03;;;2.10;;
30408;SDS011;17207;52.960;5.916;2024-02-21T11:59:32;5.78;;;2.42;;
30408;SDS011;17207;52.960;5.916;2024-02-21T12:01:59;2.42;;;1.83;;
30408;SDS011;17207;52.960;5.916;2024-02-21T12:04:25;4.63;;;1.77;;
30408;SDS011;17207;52.960;5.916;2024-02-21T12:06:54;2.13;;;1.70;;
30408;SDS011;17207;52.960;5.916;2024-02-21T12:09:22;2.25;;;1.65;;
30408;SDS011;17207;52.960;5.916;2024-02-21T12:11:56;3.28;;;1.60;;
30408;SDS011;17207;52.960;5.916;2024-02-21T12:14:22;1.60;;;1.50;;
30408;SDS011;17207;52.960;5.916;2024-02-21T12:16:50;1.88;;;1.40;;
30408;SDS011;17207;52.960;5.916;2024-02-21T12:19:16;1.75;;;1.60;;
30408;SDS011;17207;52.960;5.916;2024-02-21T12:21:42;2.13;;;1.42;;
30408;SDS011;17207;52.960;5.916;2024-02-21T12:26:39;1.55;;;1.45;;
30408;SDS011;17207;52.960;5.916;2024-02-21T12:29:05;1.35;;;1.25;;
30408;SDS011;17207;52.960;5.916;2024-02-21T12:31:31;1.60;;;1.50;;
30408;SDS011;17207;52.960;5.916;2024-02-21T12:33:57;2.30;;;1.58;;
30408;SDS011;17207;52.960;5.916;2024-02-21T12:36:24;1.83;;;1.40;;
30408;SDS011;17207;52.960;5.916;2024-02-21T12:38:51;2.95;;;1.58;;
30408;SDS011;17207;52.960;5.916;2024-02-21T12:41:17;2.33;;;1.30;;
30408;SDS011;17207;52.960;5.916;2024-02-21T12:43:43;1.90;;;1.40;;
30408;SDS011;17207;52.960;5.916;2024-02-21T12:46:09;3.10;;;1.23;;
30408;SDS011;17207;52.960;5.916;2024-02-21T12:48:35;4.22;;;1.40;;
30408;SDS011;17207;52.960;5.916;2024-02-21T12:51:01;1.35;;;1.10;;
30408;SDS011;17207;52.960;5.916;2024-02-21T12:53:27;2.30;;;1.48;;
30408;SDS011;17207;52.960;5.916;2024-02-21T12:55:55;1.90;;;1.20;;
30408;SDS011;17207;52.960;5.916;2024-02-21T12:58:21;2.20;;;1.48;;
30408;SDS011;17207;52.960;5.916;2024-02-21T13:00:47;1.40;;;1.10;;
30408;SDS011;17207;52.960;5.916;2024-02-21T13:03:14;1.63;;;1.10;;
30408;SDS011;17207;52.960;5.916;2024-02-21T13:05:40;2.40;;;1.42;;
30408;SDS011;17207;52.960;5.916;2024-02-21T13:08:06;1.55;;;1.23;;
30408;SDS011;17207;52.960;5.916;2024-02-21T13:10:32;1.85;;;1.50;;
30408;SDS011;17207;52.960;5.916;2024-02-21T13:13:02;1.50;;;1.40;;
30408;SDS011;17207;52.960;5.916;2024-02-21T13:15:28;1.13;;;1.02;;
30408;SDS011;17207;52.960;5.916;2024-02-21T13:17:57;2.17;;;1.50;;
30408;SDS011;17207;52.960;5.916;2024-02-21T13:20:23;2.88;;;1.30;;
30408;SDS011;17207;52.960;5.916;2024-02-21T13:22:49;1.95;;;1.50;;
30408;SDS011;17207;52.960;5.916;2024-02-21T13:25:16;1.45;;;1.35;;
30408;SDS011;17207;52.960;5.916;2024-02-21T13:27:45;1.67;;;1.38;;
30408;SDS011;17207;52.960;5.916;2024-02-21T13:30:11;4.53;;;1.73;;
30408;SDS011;17207;52.960;5.916;2024-02-21T13:32:38;1.63;;;1.40;;
30408;SDS011;17207;52.960;5.916;2024-02-21T13:35:04;2.20;;;1.50;;
30408;SDS011;17207;52.960;5.916;2024-02-21T13:37:31;1.98;;;1.40;;
30408;SDS011;17207;52.960;5.916;2024-02-21T13:40:00;2.28;;;1.50;;
30408;SDS011;17207;52.960;5.916;2024-02-21T13:42:28;1.80;;;1.40;;
30408;SDS011;17207;52.960;5.916;2024-02-21T13:44:54;1.67;;;1.40;;
30408;SDS011;17207;52.960;5.916;2024-02-21T13:47:21;2.53;;;1.85;;
30408;SDS011;17207;52.960;5.916;2024-02-21T13:49:47;2.75;;;1.50;;
30408;SDS011;17207;52.960;5.916;2024-02-21T13:52:13;2.42;;;1.55;;
30408;SDS011;17207;52.960;5.916;2024-02-21T13:54:39;5.13;;;1.42;;
30408;SDS011;17207;52.960;5.916;2024-02-21T13:57:05;1.60;;;1.50;;
30408;SDS011;17207;52.960;5.916;2024-02-21T13:59:31;2.03;;;1.42;;
30408;SDS011;17207;52.960;5.916;2024-02-21T14:01:59;1.40;;;1.30;;
30408;SDS011;17207;52.960;5.916;2024-02-21T14:04:25;3.13;;;1.70;;
30408;SDS011;17207;52.960;5.916;2024-02-21T14:06:52;3.28;;;1.60;;
30408;SDS011;17207;52.960;5.916;2024-02-21T14:09:18;1.77;;;1.45;;
30408;SDS011;17207;52.960;5.916;2024-02-21T14:11:44;2.67;;;1.75;;
30408;SDS011;17207;52.960;5.916;2024-02-21T14:14:11;1.65;;;1.55;;
30408;SDS011;17207;52.960;5.916;2024-02-21T14:16:39;2.20;;;1.65;;
30408;SDS011;17207;52.960;5.916;2024-02-21T14:19:05;1.90;;;1.40;;
30408;SDS011;17207;52.960;5.916;2024-02-21T14:21:33;1.52;;;1.42;;
30408;SDS011;17207;52.960;5.916;2024-02-21T14:23:59;2.22;;;1.50;;
30408;SDS011;17207;52.960;5.916;2024-02-21T14:26:28;2.13;;;1.30;;
30408;SDS011;17207;52.960;5.916;2024-02-21T14:28:57;4.10;;;1.60;;
30408;SDS011;17207;52.960;5.916;2024-02-21T14:31:31;3.83;;;1.85;;
30408;SDS011;17207;52.960;5.916;2024-02-21T14:33:57;2.15;;;1.48;;
30408;SDS011;17207;52.960;5.916;2024-02-21T14:36:31;3.22;;;1.90;;
30408;SDS011;17207;52.960;5.916;2024-02-21T14:38:58;4.72;;;2.08;;
30408;SDS011;17207;52.960;5.916;2024-02-21T14:41:24;2.63;;;1.55;;
30408;SDS011;17207;52.960;5.916;2024-02-21T14:43:50;2.47;;;1.88;;
30408;SDS011;17207;52.960;5.916;2024-02-21T14:46:16;2.08;;;1.85;;
30408;SDS011;17207;52.960;5.916;2024-02-21T14:48:42;2.20;;;1.73;;
30408;SDS011;17207;52.960;5.916;2024-02-21T14:51:10;2.13;;;1.58;;
30408;SDS011;17207;52.960;5.916;2024-02-21T14:53:36;1.85;;;1.63;;